Time;durP1;ratioP1;P1;durP2;ratioP2;P2;SDS_P1;SDS_P2;PMS_P1;PMS_P2;Temp;Humidity;BMP_temperature;BMP_pressure;BME280_temperature;BME280_humidity;BME280_pressure;Samples;Min_cycle;Max_cycle;Signal;HPM_P1;HPM_P2
2022/08/24 00:00:24;;;;;;;3.67;1.52;;;24.40;64.50;;;;;;7387578;19;20014;-78
2022/08/24 00:02:54;;;;;;;2.63;1.77;;;24.50;64.40;;;;;;7365834;19;20014;-76
2022/08/24 00:05:25;;;;;;;2.22;1.50;;;24.50;64.40;;;;;;7366912;19;20014;-76
2022/08/24 00:07:54;;;;;;;;;;;24.50;64.40;;;;;;7366785;19;20010;-76
2022/08/24 00:10:23;;;;;;;1.60;1.50;;;24.50;64.50;;;;;;7363990;19;19986;-78
2022/08/24 00:12:51;;;;;;;4.57;1.95;;;24.50;64.30;;;;;;7363558;19;20014;-77
2022/08/24 00:15:20;;;;;;;3.70;1.73;;;24.50;64.30;;;;;;7386995;19;20158;-76
2022/08/24 00:17:49;;;;;;;4.10;1.70;;;24.50;64.20;;;;;;7366081;19;20090;-77
2022/08/24 00:20:18;;;;;;;3.38;1.50;;;24.50;64.10;;;;;;7364729;19;20552;-76
2022/08/24 00:22:50;;;;;;;4.78;1.65;;;24.50;64.20;;;;;;7365281;19;20011;-76
2022/08/24 00:25:19;;;;;;;3.45;1.60;;;24.60;64.10;;;;;;7366375;19;20741;-76
2022/08/24 00:27:48;;;;;;;5.13;1.48;;;24.60;64.10;;;;;;7363536;19;20007;-76
2022/08/24 00:30:20;;;;;;;2.15;1.30;;;24.60;64.00;;;;;;7383819;19;20017;-76
2022/08/24 00:32:50;;;;;;;2.22;1.77;;;24.60;64.00;;;;;;7365883;19;20082;-76
2022/08/24 00:35:20;;;;;;;2.63;1.60;;;24.50;63.90;;;;;;7366572;19;20044;-76
2022/08/24 00:37:53;;;;;;;5.78;1.77;;;24.50;63.80;;;;;;7364219;19;20009;-77
2022/08/24 00:40:26;;;;;;;8.85;2.03;;;24.50;63.90;;;;;;7364201;19;20015;-76
2022/08/24 00:42:55;;;;;;;7.32;1.65;;;24.50;63.90;;;;;;7365754;19;20505;-77
2022/08/24 00:45:25;;;;;;;3.95;1.60;;;24.50;63.80;;;;;;7384803;19;20101;-77
2022/08/24 00:47:57;;;;;;;4.82;1.98;;;24.50;63.70;;;;;;7365647;19;20682;-77
2022/08/24 00:50:30;;;;;;;5.57;1.77;;;24.40;63.60;;;;;;7362395;19;20041;-76
2022/08/24 00:53:10;;;;;;;6.55;1.60;;;24.50;63.50;;;;;;7364102;19;20023;-77
2022/08/24 00:55:42;;;;;;;5.05;1.60;;;24.50;63.40;;;;;;7365266;19;20090;-77
2022/08/24 00:58:19;;;;;;;4.35;1.58;;;24.50;63.50;;;;;;7364580;19;20086;-77
2022/08/24 01:00:52;;;;;;;3.95;1.60;;;24.50;63.50;;;;;;7369958;19;20014;-78
2022/08/24 01:03:21;;;;;;;4.28;1.65;;;24.50;63.30;;;;;;7393449;19;20078;-77
2022/08/24 01:05:50;;;;;;;3.58;1.60;;;24.40;63.20;;;;;;7372176;19;20566;-77
2022/08/24 01:08:22;;;;;;;5.10;2.00;;;24.40;63.30;;;;;;7371019;19;20089;-77
2022/08/24 01:10:55;;;;;;;2.15;1.45;;;24.40;63.50;;;;;;7371564;19;20086;-77
2022/08/24 01:13:24;;;;;;;4.10;1.58;;;24.40;63.50;;;;;;7373027;19;20036;-77
2022/08/24 01:15:56;;;;;;;3.88;1.73;;;24.40;63.50;;;;;;7371402;19;20781;-77
2022/08/24 01:21:16;;;;;;;6.22;1.58;;;24.30;63.60;;;;;;7371664;19;20018;-77
2022/08/24 01:23:48;;;;;;;4.60;1.58;;;24.30;63.80;;;;;;7369984;19;20078;-77
2022/08/24 01:26:21;;;;;;;3.10;1.80;;;24.30;63.80;;;;;;7369547;19;20403;-77
2022/08/24 01:28:57;;;;;;;3.72;1.60;;;24.30;63.90;;;;;;7372545;19;20102;-77
2022/08/24 01:31:27;;;;;;;5.47;2.35;;;24.30;63.80;;;;;;7369969;19;20018;-77
2022/08/24 01:33:56;;;;;;;10.65;2.20;;;24.30;63.80;;;;;;7368370;19;20019;-77
2022/08/24 01:36:31;;;;;;;3.10;1.80;;;24.40;63.50;;;;;;7393031;19;20022;-77
2022/08/24 01:39:07;;;;;;;5.07;2.00;;;24.30;63.40;;;;;;7370016;19;20010;-76
2022/08/24 01:41:36;;;;;;;5.80;1.95;;;24.30;63.60;;;;;;7370317;19;20083;-76
2022/08/24 01:44:05;;;;;;;4.38;1.75;;;24.30;63.70;;;;;;7369770;19;20123;-77
2022/08/24 01:46:34;;;;;;;4.78;1.60;;;24.30;63.70;;;;;;7369474;19;20038;-77
2022/08/24 01:49:03;;;;;;;2.97;1.58;;;24.30;63.50;;;;;;7371353;19;20010;-77
2022/08/24 01:51:33;;;;;;;4.13;1.80;;;24.30;63.50;;;;;;7389124;19;20029;-77
2022/08/24 01:54:06;;;;;;;11.18;5.32;;;24.30;63.50;;;;;;7369212;19;20042;-77
2022/08/24 01:56:35;;;;;;;4.93;2.55;;;24.30;63.40;;;;;;7369835;19;20015;-76
2022/08/24 01:59:05;;;;;;;6.15;1.80;;;24.30;63.30;;;;;;7370516;19;20106;-77
2022/08/24 02:01:39;;;;;;;11.02;2.15;;;24.20;63.20;;;;;;7368989;19;20049;-77
2022/08/24 02:04:09;;;;;;;8.40;1.70;;;24.20;63.30;;;;;;7370315;19;20025;-76
2022/08/24 02:06:39;;;;;;;5.00;1.67;;;24.20;63.40;;;;;;7370488;19;20034;-77
2022/08/24 02:09:10;;;;;;;2.38;1.60;;;24.20;63.60;;;;;;7391162;19;20429;-77
2022/08/24 02:11:39;;;;;;;;;;;24.20;63.70;;;;;;7365110;19;20106;-76
2022/08/24 02:14:09;;;;;;;4.57;1.73;;;24.20;63.70;;;;;;7368946;19;19978;-76
2022/08/24 02:16:38;;;;;;;5.80;2.05;;;24.10;63.40;;;;;;7370238;19;20020;-76
2022/08/24 02:19:07;;;;;;;2.00;1.50;;;24.10;63.40;;;;;;7369620;19;20010;-77
2022/08/24 02:21:36;;;;;;;6.97;1.90;;;24.10;63.40;;;;;;7379479;19;20099;-77
2022/08/24 02:24:06;;;;;;;3.08;1.70;;;24.10;63.40;;;;;;7389280;19;20015;-77
2022/08/24 02:26:37;;;;;;;4.13;1.63;;;24.10;63.50;;;;;;7367257;19;20627;-76
2022/08/24 02:29:06;;;;;;;3.97;1.35;;;24.00;63.40;;;;;;7369335;19;20774;-77
2022/08/24 02:31:35;;;;;;;3.45;2.00;;;24.00;63.20;;;;;;7368320;19;20046;-77
2022/08/24 02:34:04;;;;;;;6.22;1.75;;;24.00;63.40;;;;;;7368770;19;20126;-77
2022/08/24 02:36:33;;;;;;;5.80;1.80;;;24.00;63.50;;;;;;7388605;19;20035;-77
2022/08/24 02:39:02;;;;;;;2.88;1.92;;;24.00;63.50;;;;;;7367659;19;20501;-77
2022/08/24 02:41:31;;;;;;;5.85;1.83;;;24.00;63.60;;;;;;7368554;19;20042;-77
2022/08/24 02:44:05;;;;;;;3.25;2.00;;;24.00;63.40;;;;;;7367416;19;20096;-76
2022/08/24 02:46:34;;;;;;;2.42;2.10;;;24.00;63.20;;;;;;7368042;19;20020;-77
2022/08/24 02:49:03;;;;;;;6.13;2.30;;;24.00;63.40;;;;;;7366704;19;20555;-77
2022/08/24 02:51:34;;;;;;;4.47;1.92;;;24.00;63.50;;;;;;7387833;19;20026;-76
2022/08/24 02:54:04;;;;;;;8.55;2.97;;;23.90;63.50;;;;;;7366755;19;20392;-77
2022/08/24 02:56:33;;;;;;;5.73;1.80;;;23.90;63.40;;;;;;7367618;19;20012;-77
2022/08/24 02:59:04;;;;;;;2.30;1.80;;;23.90;63.40;;;;;;7367659;19;20079;-76
2022/08/24 03:01:33;;;;;;;8.45;1.80;;;23.90;63.60;;;;;;7369253;19;20085;-76
2022/08/24 03:04:02;;;;;;;7.03;2.05;;;23.90;63.70;;;;;;7367067;19;20109;-77
2022/08/24 03:06:31;;;;;;;7.05;2.05;;;23.80;63.80;;;;;;7391176;19;20078;-77
2022/08/24 03:09:00;;;;;;;8.98;2.00;;;23.70;63.80;;;;;;7367238;19;20035;-77
2022/08/24 03:11:28;;;;;;;5.43;1.50;;;23.70;63.70;;;;;;7366586;19;20069;-77
2022/08/24 03:13:57;;;;;;;3.13;1.75;;;23.70;64.70;;;;;;7366659;19;20015;-77
2022/08/24 03:16:30;;;;;;;6.38;1.90;;;23.70;64.20;;;;;;7366376;19;20017;-77
2022/08/24 03:18:59;;;;;;;2.15;1.73;;;23.70;64.30;;;;;;7365528;19;20019;-77
2022/08/24 03:21:28;;;;;;;2.72;2.08;;;23.70;65.00;;;;;;7387642;19;20014;-77
2022/08/24 03:23:57;;;;;;;5.47;2.00;;;23.70;64.30;;;;;;7365488;19;20018;-77
2022/08/24 03:26:26;;;;;;;5.35;2.08;;;23.60;64.40;;;;;;7367373;19;20057;-77
2022/08/24 03:28:55;;;;;;;3.30;2.30;;;23.60;64.60;;;;;;7366729;19;20077;-77
2022/08/24 03:31:24;;;;;;;4.15;2.50;;;23.50;64.90;;;;;;7366344;19;20006;-77
2022/08/24 03:33:55;;;;;;;3.03;2.35;;;23.50;64.80;;;;;;7365945;19;20019;-77
2022/08/24 03:36:23;;;;;;;;;;;23.50;64.80;;;;;;7389673;19;20015;-76
2022/08/24 03:38:52;;;;;;;5.45;2.58;;;23.50;65.00;;;;;;7367115;19;19970;-77
2022/08/24 03:41:21;;;;;;;4.43;2.63;;;23.50;64.80;;;;;;7366118;19;20074;-76
2022/08/24 03:43:50;;;;;;;7.53;2.50;;;23.50;65.00;;;;;;7366491;19;20015;-76
2022/08/24 03:46:21;;;;;;;11.98;2.80;;;23.50;65.10;;;;;;7365123;19;20014;-76
2022/08/24 03:48:51;;;;;;;;;;;23.50;65.00;;;;;;7365092;19;20079;-76
2022/08/24 03:51:24;;;;;;;3.97;2.50;;;23.50;65.10;;;;;;7386271;19;20431;-76
2022/08/24 03:53:54;;;;;;;4.85;2.40;;;23.50;65.00;;;;;;7364756;19;20021;-75
2022/08/24 03:56:23;;;;;;;60.00;41.45;;;23.50;65.00;;;;;;7366294;19;20142;-77
2022/08/24 03:58:54;;;;;;;36.03;25.13;;;23.40;65.10;;;;;;7365302;19;20142;-77
2022/08/24 04:01:22;;;;;;;8.30;4.68;;;23.40;65.00;;;;;;7366282;19;20109;-77
2022/08/24 04:03:52;;;;;;;5.65;3.40;;;23.40;64.80;;;;;;7367236;19;20086;-76
2022/08/24 04:06:27;;;;;;;8.82;3.03;;;23.40;64.70;;;;;;7387395;19;20074;-77
2022/08/24 04:08:58;;;;;;;5.40;2.10;;;23.40;64.70;;;;;;7364763;19;20014;-76
2022/08/24 04:11:29;;;;;;;5.93;2.25;;;23.40;64.70;;;;;;7364499;19;20105;-76
2022/08/24 04:13:59;;;;;;;3.92;2.63;;;23.40;65.00;;;;;;7364187;19;20575;-78
2022/08/24 04:16:29;;;;;;;5.90;2.20;;;23.40;64.90;;;;;;7364842;19;20035;-77
2022/08/24 04:18:59;;;;;;;4.90;2.10;;;23.40;64.50;;;;;;7366027;19;20014;-77
2022/08/24 04:21:33;;;;;;;6.07;2.70;;;23.40;64.50;;;;;;7386245;19;20109;-81
2022/08/24 04:24:02;;;;;;;8.18;2.53;;;23.40;64.80;;;;;;7367062;19;20043;-77
2022/08/24 04:26:33;;;;;;;3.15;2.47;;;23.30;64.70;;;;;;7365196;19;20014;-78
2022/08/24 04:29:01;;;;;;;21.17;13.10;;;23.40;64.90;;;;;;7365172;19;20014;-78
2022/08/24 04:31:30;;;;;;;34.20;23.80;;;23.40;64.60;;;;;;7364849;19;20019;-77
2022/08/24 04:33:59;;;;;;;16.30;7.60;;;23.40;64.60;;;;;;7368419;19;20764;-79
2022/08/24 04:36:31;;;;;;;8.75;3.90;;;23.40;64.60;;;;;;7396456;19;20098;-77
2022/08/24 04:39:00;;;;;;;7.68;3.70;;;23.30;64.60;;;;;;7371861;19;20737;-82
2022/08/24 04:41:29;;;;;;;3.25;2.72;;;23.30;64.80;;;;;;7371986;19;20117;-78
2022/08/24 04:43:58;;;;;;;6.40;2.88;;;23.30;65.00;;;;;;7373153;19;20113;-78
2022/08/24 04:46:27;;;;;;;6.95;3.17;;;23.30;64.90;;;;;;7371989;19;20074;-78
2022/08/24 04:48:56;;;;;;;9.20;2.88;;;23.30;64.90;;;;;;7372232;19;20114;-78
2022/08/24 04:51:25;;;;;;;4.47;3.13;;;23.30;64.80;;;;;;7391342;19;20014;-78
2022/08/24 04:53:56;;;;;;;8.70;3.47;;;23.30;64.80;;;;;;7371272;19;20010;-78
2022/08/24 04:56:26;;;;;;;10.43;3.65;;;23.30;64.70;;;;;;7371115;19;20031;-78
2022/08/24 04:58:56;;;;;;;8.18;3.15;;;23.30;64.50;;;;;;7372882;19;20074;-78
2022/08/24 05:01:27;;;;;;;7.00;3.40;;;23.40;64.50;;;;;;7371640;19;20098;-78
2022/08/24 05:03:57;;;;;;;7.38;2.75;;;23.40;64.40;;;;;;7371480;19;20427;-78
2022/08/24 05:06:30;;;;;;;5.05;2.83;;;23.40;64.20;;;;;;7392255;19;20315;-78
2022/08/24 05:09:02;;;;;;;7.28;2.85;;;23.30;64.20;;;;;;7369608;19;20110;-78
2022/08/24 05:11:32;;;;;;;9.50;3.08;;;23.30;64.10;;;;;;7369534;19;20568;-78
2022/08/24 05:14:01;;;;;;;6.55;2.85;;;23.40;64.30;;;;;;7370801;19;20010;-78
2022/08/24 05:16:31;;;;;;;6.18;2.60;;;23.30;64.60;;;;;;7369304;19;20033;-78
2022/08/24 05:19:00;;;;;;;7.82;2.90;;;23.30;64.40;;;;;;7370109;19;20014;-78
2022/08/24 05:21:30;;;;;;;13.80;3.20;;;23.30;64.40;;;;;;7389630;19;20100;-78
2022/08/24 05:24:01;;;;;;;16.95;3.50;;;23.30;64.50;;;;;;7368650;19;20093;-78
2022/08/24 05:26:30;;;;;;;17.10;3.75;;;23.30;64.70;;;;;;7369431;19;20510;-78
2022/08/24 05:29:01;;;;;;;12.63;3.20;;;23.30;64.90;;;;;;7369061;19;20456;-78
2022/08/24 05:31:33;;;;;;;4.63;3.08;;;23.30;65.00;;;;;;7370053;19;20018;-78
2022/08/24 05:34:03;;;;;;;15.63;3.10;;;23.30;64.90;;;;;;7367281;19;20019;-78
2022/08/24 05:36:36;;;;;;;9.30;3.10;;;23.30;65.00;;;;;;7391412;19;20014;-78
2022/08/24 05:39:10;;;;;;;6.57;3.47;;;23.30;64.90;;;;;;7369005;19;20023;-78
2022/08/24 05:41:40;;;;;;;7.30;3.10;;;23.30;64.90;;;;;;7369079;19;20010;-78
2022/08/24 05:44:12;;;;;;;7.03;3.17;;;23.30;65.00;;;;;;7370142;19;20022;-78
2022/08/24 05:46:41;;;;;;;3.85;2.92;;;23.40;65.00;;;;;;7366488;19;20031;-78
2022/08/24 05:49:10;;;;;;;7.68;2.65;;;23.40;65.00;;;;;;7371114;19;20014;-78
2022/08/24 05:51:41;;;;;;;5.78;3.00;;;23.40;65.00;;;;;;7369813;19;20082;-78
2022/08/24 05:54:13;;;;;;;6.47;2.63;;;23.40;65.00;;;;;;7390415;19;20125;-78
2022/08/24 05:56:42;;;;;;;8.63;3.10;;;23.50;65.10;;;;;;7368945;19;20014;-78
2022/08/24 05:59:14;;;;;;;16.77;2.88;;;23.50;65.00;;;;;;7369306;19;20576;-78
2022/08/24 06:01:44;;;;;;;9.57;3.10;;;23.50;65.00;;;;;;7368558;19;20488;-78
2022/08/24 06:04:13;;;;;;;11.05;3.15;;;23.60;65.00;;;;;;7368796;19;20015;-78
2022/08/24 06:06:42;;;;;;;7.50;3.05;;;23.60;65.10;;;;;;7370237;19;20021;-78
2022/08/24 06:09:14;;;;;;;8.38;3.10;;;23.60;65.10;;;;;;7389613;19;20022;-78
2022/08/24 06:11:43;;;;;;;7.40;3.42;;;23.60;65.10;;;;;;7365546;19;20017;-78
2022/08/24 06:14:14;;;;;;;4.00;2.97;;;23.70;65.10;;;;;;7369319;19;20162;-78
2022/08/24 06:16:47;;;;;;;6.97;2.85;;;23.70;65.10;;;;;;7369964;19;20620;-78
2022/08/24 06:19:19;;;;;;;12.32;3.80;;;23.80;65.20;;;;;;7369727;19;20056;-78
2022/08/24 06:21:50;;;;;;;9.55;3.20;;;23.80;65.20;;;;;;7368758;19;20404;-78
2022/08/24 06:27:19;;;;;;;6.10;2.83;;;23.90;65.20;;;;;;7389320;19;20015;-79
2022/08/24 06:27:20;;;;;;;5.55;2.92;;;23.90;65.30;;;;;;7366674;19;20026;-78
2022/08/24 06:29:50;;;;;;;9.23;3.35;;;23.90;65.30;;;;;;7366856;19;20021;-77
2022/08/24 06:32:19;;;;;;;4.72;3.08;;;23.90;65.50;;;;;;7367781;19;20013;-78
2022/08/24 06:34:48;;;;;;;9.88;5.00;;;24.00;65.50;;;;;;7368793;19;20021;-78
2022/08/24 06:37:17;;;;;;;16.73;9.82;;;24.00;65.40;;;;;;7366762;19;20073;-76
2022/08/24 06:39:49;;;;;;;18.10;7.65;;;24.10;65.50;;;;;;7366257;19;20327;-76
2022/08/24 06:42:18;;;;;;;33.53;6.38;;;24.10;65.60;;;;;;7389187;19;20030;-76
2022/08/24 06:44:47;;;;;;;24.63;6.78;;;24.10;65.70;;;;;;7367174;19;20014;-77
2022/08/24 06:58:01;;;;;;;60.03;11.98;;;24.40;66.00;;;;;;7367552;19;20018;-78
2022/08/24 07:00:30;;;;;;;26.20;6.50;;;24.40;66.00;;;;;;7363241;19;20018;-79
2022/08/24 07:02:59;;;;;;;13.40;4.85;;;24.50;65.90;;;;;;7382643;19;20691;-78
2022/08/24 07:05:27;;;;;;;5.88;4.07;;;24.60;66.00;;;;;;7363444;19;20489;-78
2022/08/24 07:07:58;;;;;;;15.60;3.55;;;24.60;66.10;;;;;;7363258;19;20114;-77
2022/08/24 07:10:27;;;;;;;6.93;3.58;;;24.70;66.30;;;;;;7364180;19;20013;-77
2022/08/24 07:12:59;;;;;;;13.02;4.25;;;24.70;66.30;;;;;;7361705;19;20003;-77
2022/08/24 07:15:29;;;;;;;13.85;4.10;;;24.80;66.30;;;;;;7385046;19;20029;-77
2022/08/24 07:17:58;;;;;;;10.38;3.70;;;24.80;66.30;;;;;;7364137;19;20514;-77
2022/08/24 07:20:26;;;;;;;10.52;3.80;;;24.90;66.40;;;;;;7362441;19;20017;-77
2022/08/24 07:22:55;;;;;;;19.13;3.45;;;24.90;66.40;;;;;;7362239;19;20015;-78
2022/08/24 07:25:24;;;;;;;18.77;3.72;;;24.90;66.40;;;;;;7362767;19;20557;-77
2022/08/24 07:27:52;;;;;;;6.65;3.25;;;25.10;66.30;;;;;;7361020;19;20023;-78
2022/08/24 07:30:24;;;;;;;8.73;3.15;;;25.10;65.90;;;;;;7384199;19;20018;-78
2022/08/24 07:32:53;;;;;;;5.32;3.28;;;25.10;65.60;;;;;;7361377;19;20010;-77
2022/08/24 07:35:22;;;;;;;4.97;3.00;;;25.20;65.60;;;;;;7362305;19;20018;-77
2022/08/24 07:37:51;;;;;;;7.50;3.25;;;25.20;65.50;;;;;;7362792;19;20121;-76
2022/08/24 07:40:20;;;;;;;181.60;113.65;;;25.30;65.10;;;;;;7361937;19;20119;-74
2022/08/24 07:42:49;;;;;;;69.03;41.03;;;25.30;64.50;;;;;;7362464;19;20026;-76
2022/08/24 07:49:06;;;;;;;12.90;5.70;;;25.40;63.40;;;;;;7362103;19;20014;-75
2022/08/24 07:51:36;;;;;;;12.70;5.55;;;25.40;63.00;;;;;;7260416;19;2004346;-75
2022/08/24 07:54:06;;;;;;;11.20;6.43;;;25.50;62.60;;;;;;7382563;19;20040;-74
2022/08/24 07:56:35;;;;;;;14.13;5.43;;;25.50;62.40;;;;;;7361855;19;20025;-73
2022/08/24 07:59:04;;;;;;;15.77;4.32;;;25.50;62.70;;;;;;7363068;19;20030;-75
2022/08/24 08:01:33;;;;;;;12.40;3.60;;;25.60;62.50;;;;;;7361296;19;20015;-76
2022/08/24 08:04:05;;;;;;;14.23;4.55;;;25.60;62.00;;;;;;7361056;19;20124;-75
2022/08/24 08:06:33;;;;;;;21.00;3.80;;;25.70;61.90;;;;;;7382184;19;20030;-76
2022/08/24 08:09:03;;;;;;;8.93;3.97;;;25.70;61.80;;;;;;7359858;19;20025;-76
2022/08/24 08:11:33;;;;;;;11.13;4.80;;;25.70;61.60;;;;;;7361494;19;20007;-76
2022/08/24 08:14:02;;;;;;;9.57;3.03;;;25.80;61.40;;;;;;7362822;19;20011;-76
2022/08/24 08:16:31;;;;;;;13.65;3.13;;;25.90;61.10;;;;;;7362076;19;20464;-75
2022/08/24 08:19:00;;;;;;;12.13;3.35;;;25.90;60.70;;;;;;7362379;19;20452;-75
2022/08/24 08:24:19;;;;;;;17.58;3.20;;;25.90;60.20;;;;;;7362415;19;20025;-76
2022/08/24 08:26:51;;;;;;;17.10;2.55;;;26.00;60.10;;;;;;7362174;19;20473;-75
2022/08/24 08:29:23;;;;;;;10.52;2.30;;;26.00;59.90;;;;;;7361815;19;20010;-75
2022/08/24 08:31:52;;;;;;;15.18;2.13;;;26.00;59.70;;;;;;7360935;19;20017;-76
2022/08/24 08:34:20;;;;;;;11.20;2.03;;;26.10;59.20;;;;;;7362294;19;20410;-76
2022/08/24 08:36:53;;;;;;;13.27;1.83;;;26.10;59.00;;;;;;7363162;19;20018;-76
2022/08/24 08:39:24;;;;;;;4.95;1.83;;;26.10;58.80;;;;;;7383102;19;20022;-75
2022/08/24 08:42:17;;;;;;;14.30;1.88;;;26.10;58.90;;;;;;7361334;19;20015;-75
2022/08/24 08:45:04;;;;;;;12.30;1.80;;;26.20;58.90;;;;;;7361252;19;20053;-75
2022/08/24 08:47:52;;;;;;;6.05;1.83;;;26.20;58.70;;;;;;7361447;19;20017;-75
2022/08/24 08:50:26;;;;;;;22.30;1.63;;;26.30;58.80;;;;;;7360178;19;20116;-75
2022/08/24 08:53:27;;;;;;;11.27;1.58;;;26.30;58.20;;;;;;7359915;19;20047;-76
2022/08/24 08:56:04;;;;;;;4.50;1.57;;;26.30;58.00;;;;;;7361354;19;20011;-75
2022/08/24 08:58:51;;;;;;;5.75;1.90;;;26.40;57.60;;;;;;7362759;19;20014;-75
2022/08/24 09:01:29;;;;;;;6.15;1.42;;;26.40;57.60;;;;;;7361461;19;20019;-75
2022/08/24 09:04:26;;;;;;;6.25;1.40;;;26.40;57.10;;;;;;7358880;19;20022;-75
2022/08/24 09:07:17;;;;;;;8.23;1.30;;;26.40;56.80;;;;;;7360380;19;20014;-76
2022/08/24 09:10:24;;;;;;;8.10;1.25;;;26.50;56.70;;;;;;7360252;19;20094;-76
2022/08/24 09:13:05;;;;;;;6.00;1.15;;;26.50;56.40;;;;;;7359960;19;20345;-76
2022/08/24 09:16:00;;;;;;;4.35;1.50;;;26.50;56.10;;;;;;7382583;19;20490;-75
2022/08/24 09:18:43;;;;;;;16.20;1.55;;;26.50;55.70;;;;;;7361060;19;20015;-75
2022/08/24 09:21:35;;;;;;;9.45;1.10;;;26.60;56.10;;;;;;7363257;19;20106;-75
2022/08/24 09:24:20;;;;;;;4.10;1.20;;;26.60;55.30;;;;;;7369084;19;20448;-76
2022/08/24 09:27:01;;;;;;;2.40;1.10;;;26.50;55.30;;;;;;7368601;19;20007;-76
2022/08/24 09:29:48;;;;;;;113.70;63.00;;;26.50;55.50;;;;;;7368663;19;20375;-75
2022/08/24 09:32:32;;;;;;;34.33;18.95;;;26.60;55.90;;;;;;7367111;19;20015;-75
2022/08/24 09:35:03;;;;;;;8.82;1.88;;;26.50;55.70;;;;;;7368357;19;20094;-76
2022/08/24 09:45:17;;;;;;;4.88;1.38;;;26.70;55.40;;;;;;7365039;19;20030;-77
2022/08/24 09:55:31;;;;;;;4.20;1.05;;;26.80;54.80;;;;;;7366617;19;20326;-76
2022/08/24 10:01:46;;;;;;;4.90;0.80;;;26.90;54.00;;;;;;7368081;19;20015;-76
2022/08/24 10:04:57;;;;;;;4.35;0.90;;;26.90;54.20;;;;;;7360649;19;20132;-76
2022/08/24 10:18:15;;;;;;;5.22;0.98;;;26.90;53.90;;;;;;7245146;19;2004457;-75
2022/08/24 10:21:40;;;;;;;1.70;0.80;;;27.00;53.40;;;;;;7364899;19;20457;-76
2022/08/24 10:31:25;;;;;;;1.73;1.20;;;27.00;52.80;;;;;;7359321;19;20018;-75
2022/08/24 11:00:21;;;;;;;1.92;0.85;;;27.70;51.70;;;;;;7358714;19;20018;-76
2022/08/24 11:03:08;;;;;;;4.28;0.82;;;27.90;51.20;;;;;;7360283;19;20022;-76
2022/08/24 11:05:48;;;;;;;1.23;0.77;;;27.90;50.80;;;;;;7360090;19;20019;-76
2022/08/24 11:08:32;;;;;;;1.00;0.77;;;28.00;51.00;;;;;;7372068;19;20034;-76
2022/08/24 11:11:28;;;;;;;1.88;0.70;;;28.10;50.70;;;;;;7390353;19;20014;-77
2022/08/24 11:14:10;;;;;;;2.30;0.88;;;28.10;50.30;;;;;;7366065;19;20015;-76
2022/08/24 11:16:51;;;;;;;3.10;0.98;;;28.20;50.30;;;;;;7365593;19;20411;-77
2022/08/24 11:19:39;;;;;;;2.33;0.82;;;28.20;50.40;;;;;;7359889;19;20042;-77
2022/08/24 11:22:39;;;;;;;1.45;0.73;;;28.30;49.80;;;;;;7362202;19;20042;-76
2022/08/24 11:25:26;;;;;;;7.80;0.98;;;28.30;49.60;;;;;;7364470;19;20014;-76
2022/08/24 11:28:09;;;;;;;7.47;0.73;;;28.40;49.10;;;;;;7363473;19;20019;-76
2022/08/24 11:30:49;;;;;;;9.45;1.00;;;28.40;48.80;;;;;;7365797;19;20022;-76
2022/08/24 11:33:36;;;;;;;1.25;0.88;;;28.40;49.00;;;;;;7364039;19;20452;-76
2022/08/24 11:36:22;;;;;;;2.15;0.80;;;28.40;49.50;;;;;;7364827;19;20010;-77
2022/08/24 11:39:18;;;;;;;11.50;1.13;;;28.50;49.50;;;;;;7366592;19;20030;-77
2022/08/24 11:42:01;;;;;;;3.60;0.95;;;28.60;48.80;;;;;;7366073;19;20030;-76
2022/08/24 11:44:50;;;;;;;6.63;1.10;;;28.60;49.30;;;;;;7362599;19;20022;-76
2022/08/24 11:47:52;;;;;;;2.45;1.00;;;28.70;49.30;;;;;;7367413;19;20107;-77
2022/08/24 11:50:43;;;;;;;6.43;1.00;;;28.80;49.00;;;;;;7364101;19;20756;-76
2022/08/24 11:53:32;;;;;;;3.97;0.68;;;28.90;48.80;;;;;;7387138;19;20054;-77
2022/08/24 11:56:21;;;;;;;1.13;1.00;;;28.90;47.30;;;;;;7367893;19;20015;-77
2022/08/24 11:59:07;;;;;;;1.10;1.00;;;28.90;47.70;;;;;;7367394;19;20018;-77
2022/08/24 12:01:52;;;;;;;3.15;0.88;;;28.80;48.30;;;;;;7366063;19;20018;-77
2022/08/24 12:04:47;;;;;;;2.28;0.70;;;28.80;47.80;;;;;;7365835;19;20501;-77
2022/08/24 12:07:35;;;;;;;2.92;0.80;;;28.70;47.50;;;;;;7366286;19;20385;-77
2022/08/24 12:10:24;;;;;;;1.00;0.90;;;28.80;47.50;;;;;;7362742;19;20022;-77
2022/08/24 12:13:12;;;;;;;6.28;1.30;;;28.90;48.00;;;;;;7366525;19;20022;-77
2022/08/24 12:15:58;;;;;;;6.30;0.93;;;28.90;47.90;;;;;;7368604;19;20029;-78
2022/08/24 12:18:41;;;;;;;2.10;0.50;;;28.90;47.70;;;;;;7369997;19;20025;-77
2022/08/24 15:29:37;;;;;;;5.30;2.10;;;32.70;38.80;;;;;;7447555;19;20042;-80
2022/08/24 15:32:53;;;;;;;5.60;2.60;;;32.60;39.20;;;;;;7433444;19;20014;-83
2022/08/24 15:46:12;;;;;;;3.42;0.60;;;32.50;38.00;;;;;;7422173;19;20106;-82
2022/08/24 15:52:47;;;;;;;8.25;0.77;;;32.50;38.60;;;;;;7426120;19;20094;-81
2022/08/24 15:56:43;;;;;;;1.55;0.60;;;32.50;38.30;;;;;;7424286;19;20461;-77
2022/08/24 15:59:16;;;;;;;3.17;0.70;;;32.30;39.10;;;;;;7423545;19;20051;-76
2022/08/24 16:04:48;;;;;;;2.63;1.00;;;32.20;39.60;;;;;;7427637;19;20078;-77
2022/08/24 16:07:23;;;;;;;4.32;0.80;;;32.20;39.60;;;;;;7420771;19;20018;-78
2022/08/24 16:10:03;;;;;;;2.50;0.75;;;32.40;39.40;;;;;;7397362;19;20021;-77
2022/08/24 16:12:35;;;;;;;1.08;0.70;;;32.70;39.00;;;;;;7404053;19;20014;-77
2022/08/24 16:15:16;;;;;;;5.85;0.88;;;33.00;38.20;;;;;;7401195;19;20052;-77
2022/08/24 16:17:48;;;;;;;;;;;33.60;37.80;;;;;;7401226;19;20053;-77
2022/08/24 16:20:32;;;;;;;4.82;0.90;;;34.40;36.20;;;;;;7422826;19;19970;-77
2022/08/24 16:23:03;;;;;;;1.42;0.80;;;35.60;34.50;;;;;;7403758;19;20456;-76
2022/08/24 16:25:35;;;;;;;8.18;1.08;;;36.80;34.50;;;;;;7402741;19;20031;-77
2022/08/24 16:28:11;;;;;;;3.10;0.90;;;37.90;35.20;;;;;;7406035;19;20021;-77
2022/08/24 16:30:50;;;;;;;2.35;0.80;;;38.90;33.30;;;;;;7405571;19;20015;-77
2022/08/24 16:33:46;;;;;;;3.50;0.95;;;39.70;30.30;;;;;;7405323;19;20085;-78
2022/08/24 16:36:19;;;;;;;3.70;0.90;;;40.60;29.80;;;;;;7403958;19;20035;-77
2022/08/24 16:38:50;;;;;;;6.28;1.20;;;41.40;29.40;;;;;;7404985;19;20799;-78
2022/08/24 16:41:21;;;;;;;7.60;1.20;;;41.80;27.50;;;;;;7425515;19;20093;-77
2022/08/24 16:43:53;;;;;;;2.03;1.02;;;42.00;27.40;;;;;;7402515;19;20018;-77
2022/08/24 16:46:24;;;;;;;1.20;0.90;;;42.40;27.30;;;;;;7404016;19;20054;-76
2022/08/24 16:48:53;;;;;;;41.28;33.70;;;42.80;27.10;;;;;;7403114;19;20049;-77
2022/08/24 16:51:23;;;;;;;123.75;103.18;;;43.00;26.90;;;;;;7403622;19;20022;-77
2022/08/24 16:53:52;;;;;;;5.55;4.75;;;43.30;27.20;;;;;;7401145;19;20601;-76
2022/08/24 16:56:21;;;;;;;6.13;3.08;;;43.60;26.40;;;;;;7420942;19;20031;-77
2022/08/24 16:58:53;;;;;;;8.35;4.88;;;43.70;25.90;;;;;;7400931;19;20166;-77
2022/08/24 17:01:22;;;;;;;3.92;3.00;;;43.80;26.60;;;;;;7403998;19;20018;-77
2022/08/24 17:03:51;;;;;;;4.82;2.00;;;43.80;27.20;;;;;;7403965;19;20043;-77
2022/08/24 17:06:21;;;;;;;1.50;1.40;;;43.90;28.00;;;;;;7386977;19;20015;-76
2022/08/24 17:08:50;;;;;;;7.85;1.40;;;43.90;28.20;;;;;;7374018;19;20015;-77
2022/08/24 17:11:19;;;;;;;4.60;2.00;;;43.70;28.40;;;;;;7392327;19;20027;-76
2022/08/24 17:13:47;;;;;;;2.85;1.63;;;43.60;28.40;;;;;;7365662;19;20019;-77
2022/08/24 17:16:20;;;;;;;2.30;1.70;;;43.40;28.40;;;;;;7365358;19;21724;-77
2022/08/24 17:18:49;;;;;;;4.18;1.83;;;43.30;28.60;;;;;;7363530;19;20019;-78
2022/08/24 17:21:19;;;;;;;2.83;1.50;;;43.10;28.70;;;;;;7369897;19;20102;-78
2022/08/24 17:23:49;;;;;;;31.50;21.17;;;42.90;28.50;;;;;;7367839;19;20319;-78
2022/08/24 17:26:19;;;;;;;9.40;5.28;;;42.80;28.60;;;;;;7394219;19;20050;-78
2022/08/24 17:28:48;;;;;;;7.05;3.92;;;42.80;28.90;;;;;;7373842;19;20455;-78
2022/08/24 17:31:20;;;;;;;5.07;2.30;;;42.70;30.00;;;;;;7373698;19;20346;-79
2022/08/24 17:33:49;;;;;;;2.60;1.30;;;42.50;30.10;;;;;;7371456;19;20022;-78
2022/08/24 17:36:20;;;;;;;2.63;1.10;;;42.20;29.90;;;;;;7371192;19;20039;-79
2022/08/24 17:38:50;;;;;;;;;;;41.80;30.30;;;;;;7373301;19;20014;-78
2022/08/24 17:41:19;;;;;;;5.53;1.57;;;41.20;31.10;;;;;;7396689;19;20251;-79
2022/08/24 17:43:48;;;;;;;5.03;1.20;;;40.30;32.20;;;;;;7374062;19;20023;-78
2022/08/24 17:46:20;;;;;;;2.55;1.35;;;39.30;33.60;;;;;;7372110;19;20010;-79
2022/08/24 17:48:49;;;;;;;3.38;1.40;;;38.30;34.70;;;;;;7372417;19;20018;-78
2022/08/24 17:51:18;;;;;;;2.65;1.50;;;37.40;35.60;;;;;;7369964;19;20496;-78
2022/08/24 17:53:47;;;;;;;5.32;1.40;;;36.50;37.20;;;;;;7375398;19;20517;-78
2022/08/24 17:56:16;;;;;;;3.70;1.30;;;35.40;38.10;;;;;;7399955;19;20022;-78
2022/08/24 18:01:30;;;;;;;3.95;1.42;;;33.80;41.10;;;;;;7384298;19;20007;-78
2022/08/24 18:03:59;;;;;;;1.95;1.40;;;33.00;41.70;;;;;;7375542;19;20485;-77
2022/08/24 18:06:29;;;;;;;4.28;1.65;;;32.50;42.50;;;;;;7372097;19;20026;-77
2022/08/24 18:09:01;;;;;;;4.28;1.60;;;31.90;44.40;;;;;;7370536;19;20462;-76
2022/08/24 18:11:30;;;;;;;2.65;1.30;;;31.40;43.90;;;;;;7369585;19;20014;-76